Time;durP1;ratioP1;P1;durP2;ratioP2;P2;SDS_P1;SDS_P2;PMS_P1;PMS_P2;Temp;Humidity;BMP_temperature;BMP_pressure;BME280_temperature;BME280_humidity;BME280_pressure;Samples;Min_cycle;Max_cycle;Signal;HPM_P1;HPM_P2
2022/03/23 00:01:43;;;;;;;55.20;30.12;;;;;;;3.22;58.38;102452.91;1672300;83;25849;-76
2022/03/23 00:04:09;;;;;;;61.40;33.42;;;;;;;3.17;58.24;102447.03;1687900;84;28232;-77
2022/03/23 00:06:35;;;;;;;56.37;32.30;;;;;;;3.09;58.29;102451.48;1680321;84;25782;-76
2022/03/23 00:09:02;;;;;;;61.85;33.70;;;;;;;3.02;58.66;102451.94;1682877;84;26072;-76
2022/03/23 00:11:28;;;;;;;54.10;31.62;;;;;;;2.94;58.97;102448.45;1691723;83;26468;-76
2022/03/23 00:13:55;;;;;;;51.33;29.35;;;;;;;2.89;59.25;102451.83;1683838;84;26105;-77
2022/03/23 00:16:21;;;;;;;50.58;29.18;;;;;;;2.89;59.33;102452.30;1674419;84;27513;-77
2022/03/23 00:18:48;;;;;;;48.30;27.95;;;;;;;2.84;59.00;102448.63;1670510;84;26212;-77
2022/03/23 00:21:14;;;;;;;47.53;27.22;;;;;;;2.79;59.32;102452.02;1692028;83;26520;-76
2022/03/23 00:23:40;;;;;;;46.85;27.07;;;;;;;2.73;59.40;102441.80;1670873;84;26578;-76
2022/03/23 00:26:07;;;;;;;46.02;24.90;;;;;;;2.69;59.90;102442.93;1667997;84;25826;-78
2022/03/23 00:28:34;;;;;;;42.03;24.52;;;;;;;2.71;60.26;102446.80;1665643;84;28853;-76
2022/03/23 00:31:00;;;;;;;50.35;26.12;;;;;;;2.74;60.26;102448.78;1670759;84;25313;-77
2022/03/23 00:33:28;;;;;;;50.03;26.42;;;;;;;2.74;60.06;102451.42;1655316;84;25714;-77
2022/03/23 00:35:55;;;;;;;44.53;25.68;;;;;;;2.71;60.29;102446.34;1664931;84;26540;-76
2022/03/23 00:38:23;;;;;;;43.70;24.55;;;;;;;2.69;60.37;102436.78;1679137;84;25288;-77
2022/03/23 00:40:49;;;;;;;51.42;29.52;;;;;;;2.65;60.17;102440.06;1691869;83;27522;-77
2022/03/23 00:43:15;;;;;;;59.75;32.73;;;;;;;2.60;60.34;102445.26;1682629;84;25814;-77
2022/03/23 00:45:41;;;;;;;62.62;34.58;;;;;;;2.55;60.59;102434.94;1681480;84;25907;-77
2022/03/23 00:48:08;;;;;;;65.40;36.53;;;;;;;2.51;60.71;102436.53;1691470;84;26335;-77
2022/03/23 00:50:34;;;;;;;70.87;38.00;;;;;;;2.44;60.60;102434.72;1668735;84;25740;-76
2022/03/23 00:53:00;;;;;;;75.03;38.15;;;;;;;2.35;60.71;102431.31;1680734;84;28370;-77
2022/03/23 00:55:27;;;;;;;75.85;37.98;;;;;;;2.27;60.85;102437.03;1661728;84;25932;-75
2022/03/23 00:57:53;;;;;;;68.65;38.00;;;;;;;2.21;60.73;102434.75;1663399;85;25740;-77
2022/03/23 01:00:22;;;;;;;67.97;38.08;;;;;;;2.17;60.74;102431.91;1636416;86;26648;-78
2022/03/23 01:02:48;;;;;;;68.33;36.60;;;;;;;2.15;60.90;102427.17;1636139;87;26042;-77
2022/03/23 01:05:16;;;;;;;67.82;34.58;;;;;;;2.16;61.04;102424.07;1637259;84;27470;-77
2022/03/23 01:07:43;;;;;;;69.53;33.65;;;;;;;2.17;61.33;102423.97;1669927;84;26106;-76
2022/03/23 01:10:13;;;;;;;61.48;32.73;;;;;;;2.18;61.47;102422.19;1665216;84;25857;-75
2022/03/23 01:12:44;;;;;;;58.87;32.05;;;;;;;2.14;61.54;102421.49;1692044;84;25941;-76
2022/03/23 01:15:13;;;;;;;61.45;34.60;;;;;;;2.11;61.51;102419.51;1671225;84;25751;-76
2022/03/23 01:17:40;;;;;;;62.38;33.38;;;;;;;2.06;61.60;102417.59;1682292;84;27723;-77
2022/03/23 01:20:10;;;;;;;58.95;31.55;;;;;;;2.00;61.66;102416.63;1669915;84;26217;-75
2022/03/23 01:22:38;;;;;;;60.00;30.37;;;;;;;1.97;61.87;102405.75;1675823;84;25925;-77
2022/03/23 01:25:08;;;;;;;52.30;30.00;;;;;;;1.93;61.90;102412.61;1672945;84;25771;-77
2022/03/23 01:27:36;;;;;;;54.75;30.32;;;;;;;1.86;61.69;102406.83;1669028;84;25777;-76
2022/03/23 01:30:09;;;;;;;52.78;29.90;;;;;;;1.80;61.81;102402.36;1664491;84;27585;-79
2022/03/23 01:32:36;;;;;;;53.28;29.37;;;;;;;1.77;62.12;102400.77;1670804;84;26464;-76
2022/03/23 01:35:03;;;;;;;50.70;28.38;;;;;;;1.77;62.19;102396.80;1671647;84;25816;-77
2022/03/23 01:37:30;;;;;;;55.03;30.35;;;;;;;1.75;62.20;102397.83;1672664;84;26003;-78
2022/03/23 01:39:56;;;;;;;59.15;31.00;;;;;;;1.73;62.03;102402.34;1647343;84;26005;-77
2022/03/23 01:42:23;;;;;;;58.75;32.35;;;;;;;1.71;62.01;102395.80;1647589;85;28277;-76
2022/03/23 01:44:49;;;;;;;70.37;36.48;;;;;;;1.71;61.97;102394.98;1677633;84;26328;-75
2022/03/23 01:47:17;;;;;;;76.92;38.48;;;;;;;1.73;62.08;102396.59;1688478;84;26479;-76
2022/03/23 01:49:55;;;;;;;76.28;40.63;;;;;;;1.78;62.38;102401.59;1675594;83;26069;-77
2022/03/23 01:52:28;;;;;;;78.33;39.67;;;;;;;1.80;62.43;102399.72;1680777;84;25809;-77
2022/03/23 01:54:56;;;;;;;74.25;40.23;;;;;;;1.80;62.40;102395.30;1667138;85;28458;-77
2022/03/23 01:57:23;;;;;;;88.20;44.85;;;;;;;1.80;62.42;102393.97;1687940;84;26608;-78
2022/03/23 01:59:50;;;;;;;85.72;41.90;;;;;;;1.81;62.57;102384.27;1667577;84;25929;-76
2022/03/23 02:02:19;;;;;;;86.60;43.25;;;;;;;1.81;62.76;102390.41;1674832;84;26589;-76
2022/03/23 02:04:49;;;;;;;87.45;44.08;;;;;;;1.78;62.64;102389.70;1672823;84;25341;-76
2022/03/23 02:07:18;;;;;;;88.42;47.90;;;;;;;1.74;62.75;102385.08;1668500;85;28021;-76
2022/03/23 02:09:46;;;;;;;91.60;48.08;;;;;;;1.73;63.02;102383.39;1664543;85;26645;-77
2022/03/23 02:12:14;;;;;;;91.78;47.20;;;;;;;1.71;63.07;102384.41;1664442;84;25885;-76
2022/03/23 02:14:40;;;;;;;98.37;48.38;;;;;;;1.68;63.25;102379.28;1665485;84;25981;-77
2022/03/23 02:17:07;;;;;;;96.20;48.63;;;;;;;1.66;63.35;102380.70;1665523;85;26363;-76
2022/03/23 02:19:34;;;;;;;95.47;47.62;;;;;;;1.64;63.71;102378.62;1663067;84;27727;-76
2022/03/23 02:22:02;;;;;;;97.25;47.65;;;;;;;1.65;63.81;102382.13;1663011;85;25787;-76
2022/03/23 02:24:31;;;;;;;94.22;47.30;;;;;;;1.65;63.84;102381.63;1663408;85;25966;-77
2022/03/23 02:26:58;;;;;;;96.67;47.80;;;;;;;1.63;63.58;102379.54;1665135;85;26623;-77
2022/03/23 02:29:29;;;;;;;101.30;45.43;;;;;;;1.62;63.97;102380.95;1667424;85;25770;-76
2022/03/23 02:31:57;;;;;;;70.20;37.73;;;;;;;1.56;63.98;102384.31;1664987;85;27486;-77
2022/03/23 02:34:25;;;;;;;67.45;36.80;;;;;;;1.54;63.96;102375.63;1664649;85;26544;-75
2022/03/23 02:36:52;;;;;;;64.95;33.63;;;;;;;1.52;63.68;102376.64;1665897;85;25993;-77
2022/03/23 02:39:19;;;;;;;66.28;34.95;;;;;;;1.48;63.69;102373.80;1675854;84;26585;-77
2022/03/23 02:41:46;;;;;;;90.20;44.98;;;;;;;1.39;63.48;102373.84;1660851;84;25878;-76
2022/03/23 02:44:15;;;;;;;95.17;46.25;;;;;;;1.35;63.94;102368.81;1669660;84;27477;-76
2022/03/23 02:46:42;;;;;;;120.53;56.13;;;;;;;1.39;64.38;102361.13;1667258;85;25876;-76
2022/03/23 02:49:09;;;;;;;120.65;57.40;;;;;;;1.45;64.69;102364.25;1675745;84;25834;-77
2022/03/23 02:51:37;;;;;;;115.77;56.08;;;;;;;1.52;64.87;102359.48;1651340;85;26713;-76
2022/03/23 03:02:43;;;;;;;119.62;60.33;;;;;;;1.61;64.90;102357.65;1670579;84;26462;-76
2022/03/23 03:05:12;;;;;;;127.25;60.12;;;;;;;1.64;65.16;102350.88;1667736;85;26400;-77
2022/03/23 03:10:26;;;;;;;126.42;63.08;;;;;;;1.73;65.00;102345.55;1664935;85;27733;-77
2022/03/23 03:12:53;;;;;;;127.07;62.45;;;;;;;1.76;65.28;102346.21;1664994;85;25913;-76
2022/03/23 03:15:21;;;;;;;139.75;66.82;;;;;;;1.77;65.20;102346.61;1675119;84;25792;-76
2022/03/23 03:17:47;;;;;;;137.25;64.97;;;;;;;1.79;65.45;102347.83;1679661;84;26393;-77
2022/03/23 03:20:15;;;;;;;138.05;64.20;;;;;;;1.77;64.99;102342.65;1664554;84;26027;-77
2022/03/23 03:22:43;;;;;;;131.20;63.63;;;;;;;1.79;64.91;102343.88;1669724;84;27535;-76
2022/03/23 03:25:17;;;;;;;137.07;64.50;;;;;;;1.80;64.97;102346.88;1665104;84;26596;-76
2022/03/23 03:27:44;;;;;;;127.72;60.85;;;;;;;1.82;65.21;102335.78;1678025;84;25872;-76
2022/03/23 03:30:13;;;;;;;135.75;63.60;;;;;;;1.74;64.62;102337.52;1672191;84;25939;-76
2022/03/23 03:32:40;;;;;;;141.30;65.25;;;;;;;1.68;64.50;102331.73;1675136;84;25863;-77
2022/03/23 03:35:08;;;;;;;131.95;65.12;;;;;;;1.67;65.01;102329.56;1668862;84;27472;-77
2022/03/23 03:37:35;;;;;;;136.68;67.22;;;;;;;1.68;64.96;102326.45;1668774;84;25815;-76
2022/03/23 03:40:04;;;;;;;127.85;63.23;;;;;;;1.70;65.29;102329.41;1668384;84;25549;-76
2022/03/23 03:42:30;;;;;;;99.32;52.43;;;;;;;1.67;65.21;102326.92;1657294;84;25805;-76
2022/03/23 03:44:57;;;;;;;113.08;55.43;;;;;;;1.51;64.61;102323.47;1675371;84;25877;-77
2022/03/23 03:47:24;;;;;;;100.95;51.37;;;;;;;1.41;64.87;102325.76;1677913;84;28308;-75
2022/03/23 03:49:51;;;;;;;82.12;43.33;;;;;;;1.32;64.91;102330.25;1681077;83;25861;-76
2022/03/23 03:52:18;;;;;;;74.40;38.58;;;;;;;1.19;64.97;102328.37;1672662;84;25310;-77
2022/03/23 03:54:45;;;;;;;88.17;42.05;;;;;;;1.11;65.20;102326.14;1691909;84;26384;-76
2022/03/23 03:57:12;;;;;;;82.72;42.65;;;;;;;1.07;65.36;102332.52;1681814;84;25646;-76
2022/03/23 03:59:39;;;;;;;90.97;48.15;;;;;;;1.05;65.50;102334.89;1674165;84;28468;-75
2022/03/23 04:02:06;;;;;;;103.10;49.40;;;;;;;1.00;65.77;102327.68;1686822;84;25887;-76
2022/03/23 04:04:32;;;;;;;105.05;53.30;;;;;;;0.95;65.96;102334.52;1681616;84;26364;-76
2022/03/23 04:06:58;;;;;;;110.42;54.65;;;;;;;0.91;66.18;102331.67;1682323;84;26051;-76
2022/03/23 04:09:24;;;;;;;115.92;57.00;;;;;;;0.88;66.42;102325.72;1676699;84;25941;-76
2022/03/23 04:11:51;;;;;;;118.47;57.70;;;;;;;0.85;66.45;102325.41;1663494;84;27537;-76
2022/03/23 04:14:17;;;;;;;110.00;58.68;;;;;;;0.82;66.42;102327.34;1676974;84;25927;-77
2022/03/23 04:16:43;;;;;;;119.97;59.95;;;;;;;0.80;66.17;102323.48;1679372;84;25913;-76
2022/03/23 04:19:10;;;;;;;134.07;61.98;;;;;;;0.78;66.36;102324.89;1676529;84;25904;-76
2022/03/23 04:21:36;;;;;;;126.65;61.70;;;;;;;0.77;66.76;102326.27;1679206;84;26088;-76
2022/03/23 04:24:02;;;;;;;127.35;59.23;;;;;;;0.76;66.54;102335.98;1635448;87;27476;-76
2022/03/23 04:26:28;;;;;;;116.25;58.65;;;;;;;0.74;66.16;102326.45;1652346;86;26558;-76
2022/03/23 04:28:55;;;;;;;117.80;58.95;;;;;;;0.76;66.20;102329.39;1691683;84;25877;-77
2022/03/23 04:31:21;;;;;;;121.20;59.03;;;;;;;0.77;66.37;102318.35;1670944;84;25844;-77
2022/03/23 04:33:47;;;;;;;117.93;56.00;;;;;;;0.78;66.41;102320.92;1673378;84;25914;-78
2022/03/23 04:36:14;;;;;;;112.10;56.88;;;;;;;0.79;66.54;102324.42;1672380;84;27512;-78
2022/03/23 04:38:40;;;;;;;143.32;67.32;;;;;;;0.78;66.78;102322.25;1666591;84;25849;-76
2022/03/23 04:41:08;;;;;;;132.10;65.45;;;;;;;0.78;67.10;102324.03;1662835;84;26482;-75
2022/03/23 04:43:36;;;;;;;138.77;67.80;;;;;;;0.78;67.25;102314.34;1667111;85;25855;-76
2022/03/23 04:46:02;;;;;;;140.80;67.67;;;;;;;0.78;67.40;102319.61;1665988;85;26049;-77
2022/03/23 04:48:29;;;;;;;135.22;64.40;;;;;;;0.76;67.56;102318.84;1657132;85;27464;-77
2022/03/23 04:50:55;;;;;;;135.72;66.90;;;;;;;0.73;67.46;102312.86;1674811;84;25804;-77
2022/03/23 04:53:21;;;;;;;141.57;66.77;;;;;;;0.68;67.24;102313.59;1691529;84;26171;-76
2022/03/23 04:55:48;;;;;;;144.90;68.07;;;;;;;0.66;67.52;102311.50;1662718;84;26676;-76
2022/03/23 04:58:14;;;;;;;152.53;68.62;;;;;;;0.69;67.63;102310.00;1691601;84;25768;-75
2022/03/23 05:00:40;;;;;;;142.45;66.05;;;;;;;0.70;67.86;102313.91;1672816;84;27539;-76
2022/03/23 05:03:07;;;;;;;146.43;67.12;;;;;;;0.71;67.95;102314.73;1675119;84;25773;-77
2022/03/23 05:05:34;;;;;;;134.20;66.80;;;;;;;0.69;68.19;102309.55;1676366;84;25966;-77
2022/03/23 05:08:00;;;;;;;146.15;70.28;;;;;;;0.68;68.15;102307.83;1666033;84;26368;-76
2022/03/23 05:10:27;;;;;;;146.18;69.65;;;;;;;0.69;68.36;102313.96;1668659;84;25927;-77
2022/03/23 05:12:54;;;;;;;127.62;65.55;;;;;;;0.70;68.38;102314.36;1673443;84;27472;-76
2022/03/23 05:15:20;;;;;;;126.82;63.70;;;;;;;0.69;68.48;102317.91;1695888;84;25937;-77
2022/03/23 05:17:46;;;;;;;126.45;62.27;;;;;;;0.63;68.29;102315.16;1657088;86;26556;-76
2022/03/23 05:20:18;;;;;;;121.33;59.95;;;;;;;0.60;68.31;102313.98;1664041;84;26503;-76
2022/03/23 05:22:42;;;;;;;127.58;61.15;;;;;;;0.58;68.39;102317.63;1677100;84;25996;-75
2022/03/23 05:25:09;;;;;;;132.63;63.00;;;;;;;0.54;68.49;102316.09;1694706;84;27542;-77
2022/03/23 05:27:38;;;;;;;122.15;59.63;;;;;;;0.56;68.72;102325.63;1695653;84;25847;-76
2022/03/23 05:30:08;;;;;;;128.00;61.95;;;;;;;0.55;68.87;102321.30;1645208;86;25875;-78
2022/03/23 05:32:36;;;;;;;129.90;63.28;;;;;;;0.56;69.21;102317.72;1662637;84;26642;-76
2022/03/23 05:35:04;;;;;;;132.30;61.35;;;;;;;0.58;69.30;102317.17;1665539;84;26662;-76
2022/03/23 05:37:31;;;;;;;131.03;61.83;;;;;;;0.62;69.00;102313.92;1658638;84;27463;-77
2022/03/23 05:39:57;;;;;;;131.87;63.20;;;;;;;0.67;68.93;102313.19;1671325;84;25886;-77
2022/03/23 05:42:23;;;;;;;139.70;63.38;;;;;;;0.74;69.10;102306.67;1686414;84;25780;-76
2022/03/23 05:44:49;;;;;;;140.12;66.42;;;;;;;0.82;69.49;102306.23;1691787;84;25840;-76
2022/03/23 05:47:16;;;;;;;138.28;67.45;;;;;;;0.87;69.45;102302.44;1689867;84;25349;-76
2022/03/23 05:49:42;;;;;;;141.95;67.15;;;;;;;0.95;69.51;102299.36;1670634;83;28253;-76
2022/03/23 05:52:08;;;;;;;150.68;72.58;;;;;;;1.01;69.60;102297.24;1677238;84;25670;-77
2022/03/23 05:54:34;;;;;;;150.00;74.07;;;;;;;1.08;69.49;102299.94;1691994;84;25765;-77
2022/03/23 05:57:02;;;;;;;142.28;72.25;;;;;;;1.17;69.71;102302.08;1682203;84;26529;-76
2022/03/23 05:59:30;;;;;;;144.80;72.53;;;;;;;1.24;69.44;102305.22;1692196;83;25903;-77
2022/03/23 06:01:59;;;;;;;152.22;74.75;;;;;;;1.29;69.39;102306.66;1671548;84;27447;-77
2022/03/23 06:04:25;;;;;;;125.62;64.45;;;;;;;1.38;69.76;102301.33;1663453;84;25982;-75
2022/03/23 06:06:52;;;;;;;133.15;65.05;;;;;;;1.44;70.20;102300.98;1684678;84;25785;-76
2022/03/23 06:09:20;;;;;;;129.12;61.60;;;;;;;1.46;70.31;102305.23;1668751;84;26502;-77
2022/03/23 06:11:47;;;;;;;129.97;62.53;;;;;;;1.51;70.24;102307.16;1675260;84;25874;-77
2022/03/23 06:14:13;;;;;;;127.15;64.32;;;;;;;1.60;70.12;102297.86;1676871;84;27614;-76
2022/03/23 06:16:40;;;;;;;131.47;66.45;;;;;;;1.70;70.10;102295.52;1665377;84;26127;-76
2022/03/23 06:19:07;;;;;;;135.60;64.12;;;;;;;1.82;70.07;102290.87;1677172;84;25315;-76
2022/03/23 06:21:34;;;;;;;133.63;65.70;;;;;;;1.94;70.40;102290.14;1672845;84;25872;-78
2022/03/23 06:24:00;;;;;;;124.55;63.65;;;;;;;2.06;70.51;102295.55;1663166;84;25811;-76
2022/03/23 06:26:26;;;;;;;119.62;61.20;;;;;;;2.20;71.12;102285.48;1677966;84;27456;-76
2022/03/23 06:28:53;;;;;;;115.80;61.60;;;;;;;2.34;71.65;102285.02;1682887;84;25810;-79
2022/03/23 06:31:20;;;;;;;122.25;58.87;;;;;;;2.51;71.84;102283.12;1666518;84;26223;-76
2022/03/23 06:33:47;;;;;;;117.75;64.25;;;;;;;2.66;71.86;102284.83;1666791;84;27012;-77
2022/03/23 06:36:13;;;;;;;123.85;60.50;;;;;;;2.81;72.21;102283.87;1667689;84;25814;-77
2022/03/23 06:38:39;;;;;;;108.97;55.58;;;;;;;2.96;72.10;102282.45;1674800;84;27467;-77
2022/03/23 06:41:07;;;;;;;103.02;52.60;;;;;;;3.11;72.18;102284.13;1691859;83;25833;-77
2022/03/23 06:43:33;;;;;;;93.95;46.45;;;;;;;3.26;72.64;102287.58;1669977;84;25935;-79
2022/03/23 06:46:00;;;;;;;86.82;45.12;;;;;;;3.46;72.13;102281.00;1672043;84;26413;-77
2022/03/23 06:48:26;;;;;;;86.70;45.08;;;;;;;3.64;72.18;102281.95;1689998;84;25748;-77
2022/03/23 06:50:52;;;;;;;87.92;43.78;;;;;;;3.82;71.88;102294.47;1691866;83;28780;-77
2022/03/23 06:53:18;;;;;;;88.20;43.52;;;;;;;3.98;71.62;102291.64;1677146;84;25901;-75
2022/03/23 06:55:44;;;;;;;82.85;44.73;;;;;;;4.12;71.41;102287.10;1672255;84;25835;-76
2022/03/23 06:58:11;;;;;;;84.42;44.35;;;;;;;4.30;71.44;102288.48;1663323;84;25838;-76
2022/03/23 07:00:38;;;;;;;80.55;44.67;;;;;;;4.46;71.56;102286.95;1663069;84;25808;-77
2022/03/23 07:03:05;;;;;;;78.40;41.37;;;;;;;4.62;71.66;102287.56;1665566;84;27443;-77
2022/03/23 07:05:34;;;;;;;83.00;41.28;;;;;;;4.80;71.65;102282.78;1682312;84;26590;-78
2022/03/23 07:10:44;;;;;;;72.95;38.30;;;;;;;5.13;70.93;102289.67;1679452;84;26114;-77
2022/03/23 07:13:11;;;;;;;74.12;39.88;;;;;;;5.33;70.59;102283.75;1664793;84;26517;-77
2022/03/23 07:15:37;;;;;;;71.50;35.43;;;;;;;5.47;70.40;102279.11;1676973;84;27466;-76
2022/03/23 07:18:03;;;;;;;68.05;33.92;;;;;;;5.64;69.84;102280.55;1675287;84;25773;-75
2022/03/23 07:20:30;;;;;;;72.95;36.45;;;;;;;5.88;68.99;102281.88;1664216;84;26728;-76
2022/03/23 07:22:56;;;;;;;63.17;32.38;;;;;;;6.12;68.35;102282.66;1672526;84;26507;-77
2022/03/23 07:25:22;;;;;;;58.02;30.20;;;;;;;6.33;67.81;102279.67;1666160;84;25863;-76
2022/03/23 07:27:48;;;;;;;54.10;30.88;;;;;;;6.52;66.96;102276.45;1668925;85;27477;-77
2022/03/23 07:30:16;;;;;;;61.20;32.10;;;;;;;6.71;66.54;102275.38;1668345;84;26532;-76
2022/03/23 07:32:42;;;;;;;48.78;28.95;;;;;;;6.87;66.13;102275.36;1668860;85;26567;-78
2022/03/23 07:35:08;;;;;;;63.98;31.85;;;;;;;7.04;65.50;102275.34;1678480;84;26627;-78
2022/03/23 07:37:35;;;;;;;63.20;31.60;;;;;;;7.22;65.21;102272.53;1686728;84;26552;-77
2022/03/23 07:40:02;;;;;;;57.98;32.20;;;;;;;7.39;64.22;102276.48;1686620;83;28098;-77
2022/03/23 07:42:29;;;;;;;60.55;30.72;;;;;;;7.50;64.33;102265.31;1670497;84;26418;-77
2022/03/23 07:44:56;;;;;;;59.18;32.50;;;;;;;7.64;63.68;102266.34;1678214;84;26009;-77
2022/03/23 07:47:22;;;;;;;60.00;32.23;;;;;;;7.78;63.25;102258.53;1678809;84;25934;-77
2022/03/23 07:49:48;;;;;;;64.00;33.42;;;;;;;7.92;62.50;102259.53;1680589;83;26073;-77
2022/03/23 07:52:15;;;;;;;58.20;32.15;;;;;;;8.08;62.46;102251.09;1667989;84;26949;-76
2022/03/23 07:54:41;;;;;;;57.03;32.65;;;;;;;8.20;62.28;102252.22;1676502;84;25846;-76
2022/03/23 07:57:07;;;;;;;52.27;30.80;;;;;;;8.36;61.63;102258.47;1679122;84;25499;-77
2022/03/23 07:59:34;;;;;;;52.80;32.48;;;;;;;8.48;61.32;102253.39;1675570;84;26590;-77
2022/03/23 08:02:00;;;;;;;59.27;32.88;;;;;;;8.62;60.72;102245.01;1678437;84;25306;-78
2022/03/23 08:04:26;;;;;;;60.73;32.95;;;;;;;8.76;60.62;102249.16;1665422;84;28268;-78
2022/03/23 08:06:53;;;;;;;54.25;30.70;;;;;;;8.86;60.13;102250.87;1661810;84;26385;-77
2022/03/23 08:09:20;;;;;;;58.90;32.93;;;;;;;8.96;59.48;102243.72;1665776;85;25739;-78
2022/03/23 08:11:46;;;;;;;54.18;32.00;;;;;;;9.08;59.35;102245.81;1668268;84;26636;-78
2022/03/23 08:14:12;;;;;;;54.73;31.97;;;;;;;9.19;59.17;102239.02;1668526;85;25393;-77
2022/03/23 08:16:38;;;;;;;62.13;34.70;;;;;;;9.31;58.94;102232.55;1668576;85;26970;-77
2022/03/23 08:19:04;;;;;;;58.60;34.00;;;;;;;9.45;58.29;102240.19;1668644;84;25799;-78
2022/03/23 08:21:32;;;;;;;57.10;34.15;;;;;;;9.60;57.90;102234.74;1668484;84;25790;-77
2022/03/23 08:23:59;;;;;;;60.00;33.83;;;;;;;9.74;57.38;102240.17;1673135;84;26531;-76
2022/03/23 08:26:25;;;;;;;62.88;37.00;;;;;;;9.88;56.39;102235.75;1668051;84;26032;-77
2022/03/23 08:28:52;;;;;;;64.40;34.80;;;;;;;10.03;56.51;102232.46;1672872;84;27472;-76
2022/03/23 08:31:19;;;;;;;63.35;34.53;;;;;;;10.18;55.62;102230.72;1664281;84;25806;-76
2022/03/23 08:33:45;;;;;;;63.78;36.65;;;;;;;10.35;54.70;102234.81;1666743;85;25868;-77
2022/03/23 08:36:11;;;;;;;65.35;35.23;;;;;;;10.48;54.15;102229.13;1689043;84;26721;-77
2022/03/23 08:38:38;;;;;;;66.42;37.38;;;;;;;10.59;54.09;102231.62;1695408;84;25833;-76
2022/03/23 08:41:05;;;;;;;61.30;33.63;;;;;;;10.72;52.81;102227.63;1693999;83;28520;-79
2022/03/23 08:43:31;;;;;;;60.40;36.10;;;;;;;10.83;51.74;102226.09;1672986;84;25372;-77
2022/03/23 08:45:59;;;;;;;62.48;35.78;;;;;;;10.92;51.82;102227.05;1648613;85;25770;-77
2022/03/23 08:48:26;;;;;;;64.20;36.93;;;;;;;11.02;51.99;102225.63;1692103;84;25829;-77
2022/03/23 08:50:53;;;;;;;61.48;36.68;;;;;;;11.08;51.92;102224.53;1684448;84;26466;-78
2022/03/23 08:53:20;;;;;;;65.03;37.58;;;;;;;11.20;51.38;102226.03;1683508;84;56238;-77
2022/03/23 08:55:47;;;;;;;66.65;35.25;;;;;;;11.31;51.57;102220.42;1692187;83;25825;-77
2022/03/23 08:58:13;;;;;;;67.45;37.38;;;;;;;11.45;51.36;102219.06;1692018;84;26455;-78
2022/03/23 09:00:41;;;;;;;56.45;32.80;;;;;;;11.60;50.71;102215.69;1664654;84;25924;-78
2022/03/23 09:03:08;;;;;;;62.83;34.45;;;;;;;11.70;49.72;102215.63;1672242;84;25820;-78
2022/03/23 09:05:34;;;;;;;56.58;34.25;;;;;;;11.83;49.60;102214.73;1652602;86;27487;-79
2022/03/23 09:08:01;;;;;;;55.90;33.30;;;;;;;11.95;49.28;102204.59;1674059;84;25838;-78
2022/03/23 09:10:28;;;;;;;66.02;32.93;;;;;;;12.06;47.88;102205.17;1680361;83;25949;-77
2022/03/23 09:12:54;;;;;;;58.90;33.25;;;;;;;12.19;47.84;102204.74;1639087;85;26620;-77
2022/03/23 09:15:21;;;;;;;57.88;33.13;;;;;;;12.26;47.46;102199.94;1667244;84;25996;-77
2022/03/23 09:17:47;;;;;;;54.98;33.18;;;;;;;12.35;48.24;102192.27;1674927;84;28345;-78
2022/03/23 09:20:13;;;;;;;61.92;34.40;;;;;;;12.48;47.42;102194.52;1681306;84;25808;-77
2022/03/23 09:22:41;;;;;;;55.20;34.75;;;;;;;12.63;46.53;102192.06;1674691;84;25893;-77
2022/03/23 09:25:11;;;;;;;51.40;32.33;;;;;;;12.79;46.19;102194.31;1673317;85;25805;-77
2022/03/23 09:27:42;;;;;;;52.00;32.17;;;;;;;12.89;45.98;102191.01;1680800;84;25822;-77
2022/03/23 09:30:11;;;;;;;;;;;;;;;12.95;45.29;102189.00;1683627;83;27486;-78
2022/03/23 09:32:38;;;;;;;52.88;29.85;;;;;;;13.07;45.17;102182.83;1669004;84;26208;-78
2022/03/23 09:35:06;;;;;;;48.58;30.17;;;;;;;13.17;44.00;102183.55;1685381;85;25898;-78
2022/03/23 09:37:48;;;;;;;49.18;28.75;;;;;;;13.22;43.73;102177.64;1685105;85;25848;-78
2022/03/23 09:40:24;;;;;;;47.80;28.98;;;;;;;13.30;43.34;102170.95;1685255;83;25870;-77
2022/03/23 09:42:53;;;;;;;42.53;28.20;;;;;;;13.44;43.55;102170.28;1685374;84;27465;-77
2022/03/23 09:45:35;;;;;;;47.05;27.13;;;;;;;13.55;42.96;102164.57;1669998;85;26672;-77
2022/03/23 09:47:47;;;;;;;51.88;27.75;;;;;;;13.67;43.12;102164.56;1666144;84;25887;-78
2022/03/23 09:50:13;;;;;;;39.15;26.25;;;;;;;13.74;42.25;102157.00;1667272;84;25820;-78
2022/03/23 09:52:39;;;;;;;42.50;26.07;;;;;;;13.82;42.33;102150.75;1667267;85;25802;-77
2022/03/23 09:55:07;;;;;;;39.98;24.35;;;;;;;13.92;41.46;102153.59;1663626;85;27027;-79
2022/03/23 09:57:33;;;;;;;41.83;25.85;;;;;;;14.07;41.53;102148.34;1641500;87;25753;-77
2022/03/23 09:59:59;;;;;;;42.25;26.52;;;;;;;14.26;40.86;102146.63;1658465;83;25753;-77
2022/03/23 10:03:11;;;;;;;41.20;26.42;;;;;;;14.36;39.84;102142.41;1692190;84;26582;-79
2022/03/23 10:06:28;;;;;;;39.65;23.57;;;;;;;14.41;39.64;102135.46;1690910;84;25312;-78
2022/03/23 10:09:15;;;;;;;34.03;24.60;;;;;;;14.52;38.22;102136.97;1668484;85;28365;-77
2022/03/23 10:12:21;;;;;;;36.70;23.95;;;;;;;14.63;38.22;102133.86;1667249;84;26503;-79
2022/03/23 10:15:30;;;;;;;35.75;23.40;;;;;;;14.75;37.66;102127.58;1682903;84;25889;-78
2022/03/23 10:18:42;;;;;;;35.70;22.77;;;;;;;14.88;37.50;102131.89;1692512;84;26562;-78
2022/03/23 10:21:08;;;;;;;35.10;21.65;;;;;;;14.94;37.00;102116.33;1691386;83;25855;-78
2022/03/23 10:23:35;;;;;;;34.90;23.87;;;;;;;15.02;36.47;102113.57;1673928;84;28299;-78
2022/03/23 10:26:12;;;;;;;33.00;21.30;;;;;;;15.12;35.60;102115.55;1668296;85;25831;-76
2022/03/23 10:28:38;;;;;;;31.48;18.62;;;;;;;15.17;35.13;102107.23;1673251;84;25844;-82
2022/03/23 10:31:17;;;;;;;34.83;21.95;;;;;;;15.24;35.35;102101.95;1669958;84;25841;-77
2022/03/23 10:33:44;;;;;;;32.10;23.07;;;;;;;15.33;35.36;102098.98;1675208;84;25936;-77
2022/03/23 10:36:14;;;;;;;27.67;18.27;;;;;;;15.40;35.86;102101.30;1674693;84;27457;-78
2022/03/23 10:38:40;;;;;;;30.75;20.15;;;;;;;15.50;34.42;102102.95;1668411;85;26632;-76
2022/03/23 10:41:11;;;;;;;28.75;18.82;;;;;;;15.56;35.05;102094.95;1674052;84;26033;-76
2022/03/23 10:43:39;;;;;;;30.52;19.73;;;;;;;15.59;33.60;102095.92;1692310;84;25862;-78
2022/03/23 10:46:11;;;;;;;31.90;22.07;;;;;;;15.63;33.83;102094.53;1665618;84;26092;-77
2022/03/23 10:48:59;;;;;;;38.95;22.82;;;;;;;15.66;33.36;102090.63;1663470;85;28308;-77
2022/03/23 10:51:27;;;;;;;31.73;20.57;;;;;;;15.67;33.54;102083.72;1628745;86;26616;-79
2022/03/23 10:53:55;;;;;;;36.00;22.45;;;;;;;15.76;34.21;102083.94;1663148;86;26163;-78
2022/03/23 10:56:38;;;;;;;40.20;23.87;;;;;;;15.85;34.00;102082.83;1663547;86;26578;-76
2022/03/23 10:59:22;;;;;;;37.60;25.55;;;;;;;15.92;33.11;102084.28;1663534;86;25854;-77
2022/03/23 11:02:05;;;;;;;37.63;25.00;;;;;;;15.99;33.34;102073.91;1663173;84;27482;-76
2022/03/23 11:04:45;;;;;;;36.70;23.73;;;;;;;16.07;32.97;102077.02;1663251;85;26514;-79
2022/03/23 11:07:35;;;;;;;40.15;26.30;;;;;;;16.11;33.63;102069.70;1663323;86;26283;-77
2022/03/23 11:15:49;;;;;;;38.40;27.07;;;;;;;16.29;32.79;102051.75;1663743;86;27538;-77
2022/03/23 11:18:20;;;;;;;42.98;28.60;;;;;;;16.35;32.60;102047.44;1663529;85;25847;-77
2022/03/23 11:20:53;;;;;;;46.33;27.48;;;;;;;16.44;32.69;102045.80;1663535;84;26086;-77
2022/03/23 11:23:33;;;;;;;45.55;27.35;;;;;;;16.53;31.75;102041.96;1663504;86;26570;-78
2022/03/23 11:26:03;;;;;;;42.33;26.85;;;;;;;16.59;33.08;102038.52;1665249;84;25813;-78
2022/03/23 11:28:35;;;;;;;45.30;28.80;;;;;;;16.65;30.83;102034.20;1670712;84;27573;-77
2022/03/23 11:31:08;;;;;;;41.85;29.18;;;;;;;16.70;31.12;102032.58;1678075;84;25809;-77
2022/03/23 11:33:35;;;;;;;46.23;27.62;;;;;;;16.71;31.96;102023.95;1692369;84;26464;-79
2022/03/23 11:36:08;;;;;;;48.52;29.87;;;;;;;16.72;31.73;102025.11;1692529;84;25922;-79
2022/03/23 11:38:34;;;;;;;46.02;29.35;;;;;;;16.75;31.60;102014.42;1692610;84;25905;-78